Time;durP1;ratioP1;P1;durP2;ratioP2;P2;SDS_P1;SDS_P2;PMS_P1;PMS_P2;Temp;Humidity;BMP_temperature;BMP_pressure;BME280_temperature;BME280_humidity;BME280_pressure;Samples;Min_cycle;Max_cycle;Signal;HPM_P1;HPM_P2
2021/06/19 00:00:41;;;;;;;2.72;0.63;;;;;;;13.89;38.69;98552.03;5033025;28;20054;-59
2021/06/19 00:03:07;;;;;;;0.30;0.30;;;;;;;13.87;38.86;98543.19;5032630;28;20491;-59
2021/06/19 00:05:34;;;;;;;0.10;0.10;;;;;;;13.88;38.79;98546.78;5034383;28;20037;-59
2021/06/19 00:08:00;;;;;;;0.10;0.10;;;;;;;13.95;38.74;98550.97;5033860;28;20037;-60
2021/06/19 00:10:26;;;;;;;0.30;0.30;;;;;;;14.04;38.85;98558.78;5034199;28;20039;-59
2021/06/19 00:12:52;;;;;;;0.10;0.10;;;;;;;14.14;38.58;98547.81;5034342;28;20111;-59
2021/06/19 00:15:20;;;;;;;0.30;0.30;;;;;;;14.41;38.19;98560.69;5034257;28;20033;-59
2021/06/19 00:17:47;;;;;;;0.10;0.10;;;;;;;15.39;36.50;98543.47;5034021;28;20057;-59
2021/06/19 00:20:19;;;;;;;0.28;0.28;;;;;;;15.59;36.38;98547.38;5033986;28;20030;-59
2021/06/19 00:22:46;;;;;;;0.20;0.20;;;;;;;15.33;36.80;98555.63;5034035;28;20033;-60
2021/06/19 00:25:14;;;;;;;0.20;0.20;;;;;;;15.10;37.62;98558.88;5034052;28;20080;-58
2021/06/19 00:27:41;;;;;;;0.20;0.20;;;;;;;14.88;38.10;98559.88;5033822;28;20483;-59
2021/06/19 00:30:08;;;;;;;0.20;0.20;;;;;;;14.77;38.22;98558.19;5033715;28;20472;-60
2021/06/19 00:32:34;;;;;;;0.20;0.20;;;;;;;14.74;38.52;98554.03;5033722;28;20048;-59
2021/06/19 00:35:01;;;;;;;0.10;0.10;;;;;;;15.27;37.76;98544.81;5033916;28;20441;-59
2021/06/19 00:37:26;;;;;;;0.10;0.10;;;;;;;15.52;37.18;98541.31;5031995;28;20025;-59
2021/06/19 00:39:52;;;;;;;0.10;0.10;;;;;;;15.61;37.17;98550.72;5033776;28;20120;-59
2021/06/19 00:42:21;;;;;;;0.30;0.30;;;;;;;15.57;37.33;98546.84;5033457;28;20453;-60
2021/06/19 00:44:48;;;;;;;0.10;0.10;;;;;;;15.44;37.87;98544.59;5033665;28;20144;-60
2021/06/19 00:47:14;;;;;;;0.10;0.10;;;;;;;15.32;38.16;98545.66;5032270;28;20033;-60
2021/06/19 00:49:40;;;;;;;0.20;0.20;;;;;;;15.13;38.37;98537.03;5033148;28;20037;-61
2021/06/19 00:52:07;;;;;;;0.10;0.10;;;;;;;14.98;38.77;98537.00;5031702;28;20091;-60
2021/06/19 00:54:33;;;;;;;0.10;0.10;;;;;;;14.93;39.15;98543.34;5033574;28;20123;-60
2021/06/19 00:57:01;;;;;;;0.10;0.10;;;;;;;14.90;39.32;98530.06;5031704;28;20032;-61
2021/06/19 00:59:26;;;;;;;0.20;0.20;;;;;;;14.89;38.91;98529.22;5031641;28;20087;-60
2021/06/19 01:01:53;;;;;;;0.43;0.43;;;;;;;14.93;39.22;98526.75;5032801;28;20065;-60
2021/06/19 01:04:19;;;;;;;4.68;0.43;;;;;;;14.92;38.96;98527.84;5031489;28;20116;-60
2021/06/19 01:06:45;;;;;;;1.00;0.80;;;;;;;14.92;39.05;98530.59;5032542;28;20117;-60
2021/06/19 01:09:11;;;;;;;0.40;0.25;;;;;;;14.95;39.00;98532.00;5033323;28;20112;-59
2021/06/19 01:11:38;;;;;;;0.25;0.25;;;;;;;14.95;39.23;98532.00;5032974;28;20048;-60
2021/06/19 01:14:05;;;;;;;0.68;0.35;;;;;;;14.94;39.04;98530.34;5033284;28;20060;-61
2021/06/19 01:16:33;;;;;;;1.63;0.75;;;;;;;14.89;39.28;98526.44;5032907;28;20037;-60
2021/06/19 01:18:59;;;;;;;0.43;0.43;;;;;;;14.79;39.46;98522.81;5032562;28;20032;-60
2021/06/19 01:21:29;;;;;;;0.10;0.10;;;;;;;14.70;39.90;98530.78;5032512;28;20466;-60
2021/06/19 01:23:55;;;;;;;0.32;0.32;;;;;;;14.62;39.80;98534.06;5032562;28;20497;-59
2021/06/19 01:26:29;;;;;;;0.28;0.28;;;;;;;14.57;40.08;98526.53;5031166;28;20033;-60
2021/06/19 01:28:57;;;;;;;1.45;0.55;;;;;;;14.58;39.84;98528.22;5032341;28;20502;-60
2021/06/19 01:31:24;;;;;;;1.17;0.85;;;;;;;14.56;40.05;98533.19;5031009;28;20049;-59
2021/06/19 01:33:51;;;;;;;0.10;0.10;;;;;;;14.55;40.17;98528.75;5031006;28;20071;-60
2021/06/19 01:36:18;;;;;;;0.25;0.25;;;;;;;14.52;40.32;98523.75;5031394;28;20546;-59
2021/06/19 01:38:47;;;;;;;1.05;0.90;;;;;;;14.56;40.07;98519.38;5032739;28;20041;-59
2021/06/19 01:41:18;;;;;;;1.40;0.20;;;;;;;14.52;40.28;98515.47;5032984;28;20041;-60
2021/06/19 01:43:45;;;;;;;0.10;0.10;;;;;;;14.53;40.11;98514.34;5032853;28;20103;-59
2021/06/19 01:46:12;;;;;;;0.90;0.73;;;;;;;14.50;40.08;98517.66;5032527;28;20037;-60
2021/06/19 01:48:39;;;;;;;0.30;0.30;;;;;;;14.45;40.56;98524.00;5032490;28;20103;-59
2021/06/19 01:51:10;;;;;;;0.10;0.10;;;;;;;14.44;40.62;98510.44;5032790;28;20033;-60
2021/06/19 01:53:40;;;;;;;0.20;0.20;;;;;;;14.48;40.49;98515.16;5032587;28;20040;-59
2021/06/19 01:56:08;;;;;;;0.35;0.35;;;;;;;14.52;40.51;98518.25;5032725;28;20040;-59
2021/06/19 01:58:35;;;;;;;0.20;0.20;;;;;;;14.51;40.25;98513.81;5032669;28;20045;-60
2021/06/19 02:01:03;;;;;;;0.30;0.30;;;;;;;14.48;40.25;98515.16;5032056;28;20049;-60
2021/06/19 02:03:29;;;;;;;0.73;0.73;;;;;;;14.44;40.77;98525.13;5032156;28;20446;-59
2021/06/19 02:05:55;;;;;;;0.93;0.28;;;;;;;14.36;40.83;98526.41;5031948;28;20030;-60
2021/06/19 02:08:21;;;;;;;0.25;0.25;;;;;;;14.41;40.89;98522.03;5032319;28;20061;-60
2021/06/19 02:10:48;;;;;;;0.20;0.20;;;;;;;14.53;40.70;98522.66;5030892;28;20075;-58
2021/06/19 02:13:14;;;;;;;1.13;0.63;;;;;;;14.62;40.45;98512.81;5032647;28;20526;-59
2021/06/19 02:15:42;;;;;;;0.35;0.35;;;;;;;14.75;40.62;98518.91;5032606;28;20065;-61
2021/06/19 02:18:08;;;;;;;0.22;0.22;;;;;;;14.78;40.53;98512.84;5032631;28;20060;-60
2021/06/19 02:20:34;;;;;;;0.55;0.55;;;;;;;14.82;40.68;98511.22;5035921;28;20115;-61
2021/06/19 02:23:00;;;;;;;0.93;0.90;;;;;;;14.86;40.27;98506.81;5036144;28;20139;-60
2021/06/19 02:25:28;;;;;;;0.63;0.63;;;;;;;14.98;40.40;98495.53;5035996;28;20517;-59
2021/06/19 02:28:01;;;;;;;0.25;0.25;;;;;;;15.11;40.19;98508.84;5036218;28;20040;-60
2021/06/19 02:30:39;;;;;;;0.47;0.47;;;;;;;15.28;39.96;98505.81;5035046;28;20033;-52
2021/06/19 02:33:05;;;;;;;0.20;0.20;;;;;;;15.38;39.97;98505.84;5032662;28;20037;-50
2021/06/19 02:35:34;;;;;;;0.50;0.50;;;;;;;15.56;39.85;98500.88;5034246;28;20119;-50
2021/06/19 02:38:00;;;;;;;0.75;0.75;;;;;;;15.94;39.31;98493.19;5035437;28;20410;-51
2021/06/19 02:40:27;;;;;;;0.52;0.52;;;;;;;16.26;39.00;98495.63;5035093;28;20033;-52
2021/06/19 02:42:54;;;;;;;0.30;0.30;;;;;;;16.47;38.72;98498.34;5035560;28;20383;-52
2021/06/19 02:45:20;;;;;;;0.40;0.40;;;;;;;16.67;38.74;98486.38;5035379;28;20087;-48
2021/06/19 02:47:50;;;;;;;0.22;0.22;;;;;;;16.90;38.34;98490.47;5035384;28;20064;-51
2021/06/19 02:50:18;;;;;;;0.20;0.20;;;;;;;17.38;38.02;98486.34;5035920;28;20029;-53
2021/06/19 02:52:45;;;;;;;0.10;0.10;;;;;;;18.68;36.04;98484.88;5035637;28;20049;-59
2021/06/19 02:55:16;;;;;;;0.30;0.30;;;;;;;19.94;34.28;98471.41;5035781;28;20041;-51
2021/06/19 02:57:42;;;;;;;0.52;0.20;;;;;;;19.81;34.85;98466.63;5035885;28;20060;-48
2021/06/19 03:00:11;;;;;;;7.70;1.25;;;;;;;19.31;35.86;98464.31;5035210;28;20081;-48
2021/06/19 03:02:37;;;;;;;0.20;0.20;;;;;;;18.62;37.47;98488.84;5035754;28;20037;-49
2021/06/19 03:05:04;;;;;;;0.70;0.70;;;;;;;18.14;38.28;98472.97;5035293;28;20116;-49
2021/06/19 03:07:30;;;;;;;0.32;0.32;;;;;;;17.93;38.79;98475.94;5035866;28;20057;-49
2021/06/19 03:09:56;;;;;;;0.17;0.17;;;;;;;17.86;38.93;98476.25;5035579;28;20501;-52
2021/06/19 03:12:22;;;;;;;0.20;0.20;;;;;;;17.60;39.35;98458.13;5035464;28;20037;-52
2021/06/19 03:14:49;;;;;;;0.10;0.10;;;;;;;17.56;39.71;98460.66;5033841;28;20039;-47
2021/06/19 03:17:15;;;;;;;0.43;0.20;;;;;;;17.78;39.29;98454.63;5035011;28;20043;-47
2021/06/19 03:19:41;;;;;;;0.25;0.25;;;;;;;18.45;37.94;98467.91;5033414;28;20033;-59
2021/06/19 03:22:07;;;;;;;0.10;0.10;;;;;;;19.22;36.89;98460.56;5035254;28;20037;-51
2021/06/19 03:25:00;;;;;;;0.55;0.55;;;;;;;19.03;37.54;98454.97;5034537;28;20125;-59
2021/06/19 03:27:26;;;;;;;0.10;0.10;;;;;;;18.72;38.07;98455.34;5032104;28;20507;-52
2021/06/19 03:29:52;;;;;;;0.10;0.10;;;;;;;18.45;38.57;98458.75;5034664;28;20033;-51
2021/06/19 03:32:17;;;;;;;0.10;0.10;;;;;;;18.09;39.20;98459.13;5034948;28;20043;-50
2021/06/19 03:34:43;;;;;;;0.20;0.20;;;;;;;17.73;39.90;98457.47;5034791;28;20128;-58
2021/06/19 03:37:09;;;;;;;0.25;0.25;;;;;;;17.45;40.46;98453.53;5034989;28;20124;-51
2021/06/19 03:39:35;;;;;;;0.15;0.15;;;;;;;17.36;40.61;98447.78;5035008;28;20036;-51
2021/06/19 03:42:02;;;;;;;0.95;0.57;;;;;;;17.23;40.72;98440.91;5034702;28;20029;-53
2021/06/19 03:44:29;;;;;;;0.20;0.20;;;;;;;17.20;40.83;98435.94;5034520;28;20057;-49
2021/06/19 03:46:55;;;;;;;0.85;0.40;;;;;;;17.36;40.60;98436.66;5034826;28;20522;-53
2021/06/19 03:49:21;;;;;;;0.17;0.17;;;;;;;17.79;39.60;98431.31;5032847;28;20121;-50
2021/06/19 03:51:48;;;;;;;0.10;0.10;;;;;;;18.44;38.52;98430.09;5032929;28;20030;-52
2021/06/19 03:54:15;;;;;;;0.20;0.20;;;;;;;18.87;37.83;98415.41;5034727;28;20490;-55
2021/06/19 03:56:41;;;;;;;0.80;0.20;;;;;;;18.47;38.71;98428.69;5034416;28;20040;-52
2021/06/19 03:59:07;;;;;;;0.10;0.10;;;;;;;17.88;39.71;98423.19;5034603;28;20034;-52
2021/06/19 04:01:33;;;;;;;0.10;0.10;;;;;;;17.30;41.02;98432.28;5034113;28;20058;-52
2021/06/19 04:03:59;;;;;;;0.10;0.10;;;;;;;16.94;41.42;98425.00;5034514;28;20047;-49
2021/06/19 04:06:25;;;;;;;0.10;0.10;;;;;;;16.84;41.55;98416.69;5034008;28;20155;-52
2021/06/19 04:08:52;;;;;;;0.10;0.10;;;;;;;17.20;41.07;98426.81;5034567;28;20116;-50
2021/06/19 04:11:18;;;;;;;0.10;0.10;;;;;;;17.27;40.64;98414.25;5032654;28;20438;-54
2021/06/19 04:13:44;;;;;;;0.10;0.10;;;;;;;17.31;40.69;98406.16;5034388;28;20095;-55
2021/06/19 04:16:11;;;;;;;0.10;0.10;;;;;;;17.20;40.96;98410.97;5033666;28;20034;-53
2021/06/19 04:18:40;;;;;;;0.10;0.10;;;;;;;17.06;41.21;98398.84;5033878;28;20120;-48
2021/06/19 04:21:07;;;;;;;0.10;0.10;;;;;;;17.17;40.92;98398.50;5033430;28;20029;-53
2021/06/19 04:23:33;;;;;;;0.20;0.20;;;;;;;17.89;39.75;98394.28;5033381;28;20045;-58
2021/06/19 04:26:00;;;;;;;0.43;0.30;;;;;;;19.18;37.61;98387.13;5033978;28;20105;-59
2021/06/19 04:28:27;;;;;;;0.30;0.28;;;;;;;19.60;36.90;98379.78;5033557;28;20363;-60
2021/06/19 04:30:58;;;;;;;0.30;0.30;;;;;;;19.97;36.72;98385.56;5033367;28;20137;-60
2021/06/19 04:33:24;;;;;;;0.10;0.10;;;;;;;20.43;35.99;98381.88;5033475;28;20410;-60
2021/06/19 04:35:50;;;;;;;0.10;0.10;;;;;;;20.73;35.89;98371.22;5034033;28;20025;-60
2021/06/19 04:38:15;;;;;;;0.10;0.10;;;;;;;21.11;35.56;98371.75;5033357;28;20041;-59
2021/06/19 04:43:13;;;;;;;0.10;0.10;;;;;;;23.35;32.75;98358.56;5038718;28;20036;-59
2021/06/19 04:45:39;;;;;;;0.10;0.10;;;;;;;24.86;31.19;98364.16;5046239;28;20036;-59
2021/06/19 04:48:07;;;;;;;0.10;0.10;;;;;;;24.71;31.94;98359.13;5053258;28;20079;-60
2021/06/19 04:50:35;;;;;;;0.20;0.17;;;;;;;24.18;32.94;98352.94;5051690;28;20496;-60
2021/06/19 04:53:02;;;;;;;0.10;0.10;;;;;;;23.50;34.40;98347.97;5053316;28;20040;-60
2021/06/19 04:55:29;;;;;;;0.10;0.10;;;;;;;22.75;35.34;98343.34;5051748;28;20032;-60
2021/06/19 04:57:57;;;;;;;1.73;0.75;;;;;;;21.94;36.93;98345.38;5052954;28;20032;-58
2021/06/19 05:00:27;;;;;;;0.10;0.10;;;;;;;21.27;38.01;98338.69;5052635;28;20417;-60
2021/06/19 05:02:54;;;;;;;0.10;0.10;;;;;;;20.73;38.96;98341.38;5053198;28;20053;-60
2021/06/19 05:05:21;;;;;;;0.20;0.20;;;;;;;20.38;39.44;98334.59;5053052;28;20033;-60
2021/06/19 05:07:47;;;;;;;0.47;0.47;;;;;;;20.06;39.90;98330.78;5052697;28;20036;-61
2021/06/19 05:10:13;;;;;;;2.42;2.28;;;;;;;19.79;40.48;98326.84;5052922;28;20406;-60
2021/06/19 05:12:43;;;;;;;0.20;0.20;;;;;;;19.61;40.38;98318.22;5052938;28;20031;-60
2021/06/19 05:15:16;;;;;;;0.10;0.10;;;;;;;19.41;40.56;98318.56;5052735;28;20506;-60
2021/06/19 05:17:42;;;;;;;0.10;0.10;;;;;;;19.26;40.71;98312.13;5051321;28;20136;-59
2021/06/19 05:20:08;;;;;;;0.10;0.10;;;;;;;19.18;40.64;98298.91;5044721;28;20843;-60
2021/06/19 05:22:34;;;;;;;0.10;0.10;;;;;;;18.96;40.91;98301.50;5041964;28;20033;-59
2021/06/19 05:25:01;;;;;;;1.90;1.50;;;;;;;18.77;41.13;98287.59;5041807;28;20379;-59
2021/06/19 05:27:27;;;;;;;0.10;0.10;;;;;;;18.67;41.11;98294.16;5038056;28;20057;-61
2021/06/19 05:29:52;;;;;;;0.47;0.47;;;;;;;18.62;41.06;98297.00;5039864;28;20056;-61
2021/06/19 05:32:18;;;;;;;1.10;1.10;;;;;;;18.61;41.07;98289.75;5044651;28;20537;-60
2021/06/19 05:34:45;;;;;;;0.10;0.10;;;;;;;18.66;40.81;98281.38;5028001;28;20041;-61
2021/06/19 05:37:11;;;;;;;6.55;0.95;;;;;;;18.73;40.54;98287.38;5043031;28;20028;-62
2021/06/19 05:39:37;;;;;;;0.30;0.30;;;;;;;18.78;40.62;98286.47;5037037;28;20034;-60
2021/06/19 05:42:03;;;;;;;0.10;0.10;;;;;;;18.82;40.49;98280.00;5041524;28;20506;-61
2021/06/19 05:44:29;;;;;;;0.13;0.13;;;;;;;18.90;40.25;98284.06;5039889;28;21531;-59
2021/06/19 05:46:55;;;;;;;0.10;0.10;;;;;;;18.99;40.22;98279.50;5038711;28;20029;-61
2021/06/19 05:49:21;;;;;;;0.70;0.70;;;;;;;19.07;39.95;98280.75;5041933;28;20112;-60
2021/06/19 05:51:47;;;;;;;0.30;0.30;;;;;;;19.22;39.82;98277.69;5039912;28;20152;-61
2021/06/19 05:54:16;;;;;;;0.25;0.25;;;;;;;19.39;39.49;98277.13;5045854;28;20064;-60
2021/06/19 05:56:42;;;;;;;2.10;0.80;;;;;;;19.44;39.46;98273.41;5050443;28;20036;-59
2021/06/19 05:59:08;;;;;;;0.10;0.10;;;;;;;19.42;39.63;98276.50;5044765;28;20036;-59
2021/06/19 06:01:34;;;;;;;0.10;0.10;;;;;;;19.53;39.31;98270.75;5042171;28;20045;-59
2021/06/19 06:04:00;;;;;;;4.57;1.05;;;;;;;19.74;39.04;98246.94;5046820;28;20056;-60
2021/06/19 06:06:26;;;;;;;0.10;0.10;;;;;;;20.04;38.63;98260.59;5047057;28;20476;-54
2021/06/19 06:08:53;;;;;;;1.17;0.73;;;;;;;20.31;38.27;98254.16;5050840;28;20502;-59
2021/06/19 06:11:19;;;;;;;0.85;0.68;;;;;;;20.53;38.13;98258.94;5050772;28;20178;-58
2021/06/19 06:13:45;;;;;;;0.10;0.10;;;;;;;20.66;38.09;98260.06;5052455;28;20033;-59
2021/06/19 06:16:11;;;;;;;0.10;0.10;;;;;;;20.82;37.84;98255.78;5052441;28;20035;-60
2021/06/19 06:18:37;;;;;;;0.10;0.10;;;;;;;21.06;37.65;98257.44;5052992;28;20033;-60
2021/06/19 06:21:03;;;;;;;0.22;0.22;;;;;;;21.27;37.59;98243.75;5052501;28;20048;-61
2021/06/19 06:23:32;;;;;;;0.10;0.10;;;;;;;21.41;37.32;98249.28;5053193;28;20025;-60
2021/06/19 06:25:58;;;;;;;0.10;0.10;;;;;;;21.50;37.34;98252.09;5052282;28;20037;-62
2021/06/19 06:28:24;;;;;;;0.75;0.57;;;;;;;21.41;37.51;98245.66;5052682;28;20055;-58
2021/06/19 06:30:50;;;;;;;0.10;0.10;;;;;;;21.23;38.09;98242.78;5052470;28;20040;-62
2021/06/19 06:33:17;;;;;;;0.47;0.47;;;;;;;21.05;38.49;98244.59;5034756;28;20525;-60
2021/06/19 06:35:43;;;;;;;0.10;0.10;;;;;;;20.86;38.79;98238.41;5051499;28;20514;-60
2021/06/19 06:38:09;;;;;;;0.25;0.25;;;;;;;20.64;39.26;98248.38;5052246;28;20032;-59
2021/06/19 06:40:35;;;;;;;0.52;0.52;;;;;;;20.36;39.61;98242.88;5051337;28;20090;-60
2021/06/19 06:43:01;;;;;;;0.30;0.30;;;;;;;20.16;40.11;98246.94;5052289;28;20033;-60
2021/06/19 06:45:27;;;;;;;0.20;0.20;;;;;;;20.09;40.36;98240.97;5050938;28;20571;-62
2021/06/19 06:47:53;;;;;;;0.30;0.30;;;;;;;20.09;40.24;98238.19;5052453;28;20029;-59
2021/06/19 06:50:20;;;;;;;0.13;0.13;;;;;;;20.08;40.51;98236.53;5052026;28;20406;-60
2021/06/19 06:52:46;;;;;;;0.15;0.15;;;;;;;20.10;40.15;98237.88;5052094;28;21656;-59
2021/06/19 06:55:13;;;;;;;0.17;0.17;;;;;;;20.16;40.10;98232.19;5052096;28;20025;-61
2021/06/19 06:57:39;;;;;;;0.57;0.57;;;;;;;20.05;40.28;98234.34;5052403;28;20041;-59
2021/06/19 07:00:06;;;;;;;0.13;0.13;;;;;;;19.92;40.40;98228.50;5049630;28;20037;-59
2021/06/19 07:02:32;;;;;;;0.10;0.10;;;;;;;19.80;40.65;98224.56;5052217;28;20043;-59
2021/06/19 07:04:58;;;;;;;0.10;0.10;;;;;;;19.81;40.54;98227.06;5051317;28;20398;-58
2021/06/19 07:07:24;;;;;;;0.10;0.10;;;;;;;19.84;40.52;98225.63;5051786;28;20032;-59
2021/06/19 07:09:50;;;;;;;0.30;0.30;;;;;;;19.93;40.40;98229.31;5052446;28;20060;-59
2021/06/19 07:12:16;;;;;;;0.20;0.20;;;;;;;20.01;40.38;98224.97;5046985;28;20032;-60
2021/06/19 07:14:42;;;;;;;1.63;1.30;;;;;;;20.23;40.19;98218.63;5052199;28;20452;-60
2021/06/19 07:17:09;;;;;;;0.10;0.10;;;;;;;20.54;39.57;98210.41;5052138;28;20032;-60
2021/06/19 07:19:39;;;;;;;0.30;0.30;;;;;;;20.78;39.03;98209.31;5051451;28;20025;-59
2021/06/19 07:22:07;;;;;;;0.10;0.10;;;;;;;21.07;38.88;98210.78;5052204;28;20040;-60
2021/06/19 07:24:33;;;;;;;0.10;0.10;;;;;;;21.23;38.51;98214.84;5051589;28;20037;-61
2021/06/19 07:26:59;;;;;;;0.20;0.20;;;;;;;21.45;38.14;98201.97;5050240;28;20028;-60
2021/06/19 07:29:24;;;;;;;0.10;0.10;;;;;;;21.82;37.81;98205.41;5052169;28;20037;-59
2021/06/19 07:31:50;;;;;;;0.35;0.30;;;;;;;22.14;37.60;98197.75;5049927;28;20029;-59
2021/06/19 07:34:16;;;;;;;0.38;0.38;;;;;;;22.22;37.45;98194.16;5051646;28;20033;-59
2021/06/19 07:36:45;;;;;;;0.17;0.17;;;;;;;22.05;37.97;98189.38;5044869;28;20040;-60
2021/06/19 07:39:11;;;;;;;0.10;0.10;;;;;;;21.87;38.25;98188.50;5041483;28;20083;-59
2021/06/19 07:41:38;;;;;;;0.10;0.10;;;;;;;21.74;38.44;98189.47;5043508;28;20102;-60
2021/06/19 07:44:04;;;;;;;0.20;0.20;;;;;;;21.58;38.85;98187.09;5042471;28;20037;-60
2021/06/19 07:46:30;;;;;;;0.10;0.10;;;;;;;21.42;39.41;98188.63;5042564;28;20110;-60
2021/06/19 07:48:56;;;;;;;0.28;0.28;;;;;;;21.31;39.41;98196.50;5043335;28;20486;-62
2021/06/19 07:51:40;;;;;;;0.55;0.20;;;;;;;21.29;39.64;98184.78;5045794;28;20029;-62
2021/06/19 07:54:06;;;;;;;;;;;;;;;21.33;39.61;98180.22;5025375;28;20025;-61
2021/06/19 07:56:32;;;;;;;0.15;0.15;;;;;;;21.31;39.38;98182.53;5028653;28;19924;-61
2021/06/19 07:58:58;;;;;;;0.10;0.10;;;;;;;21.31;39.58;98182.53;5031235;28;20029;-60
2021/06/19 08:01:23;;;;;;;0.40;0.40;;;;;;;21.28;39.58;98181.19;5027577;28;20416;-63
2021/06/19 08:03:49;;;;;;;0.20;0.20;;;;;;;21.20;39.78;98182.00;5031142;28;20048;-59
2021/06/19 08:06:15;;;;;;;0.30;0.30;;;;;;;21.11;40.08;98186.69;5029915;28;20121;-62
2021/06/19 08:08:41;;;;;;;3.28;0.70;;;;;;;21.18;39.91;98187.06;5031086;28;20129;-61
2021/06/19 08:11:07;;;;;;;0.25;0.25;;;;;;;21.37;39.49;98186.00;5031067;28;20088;-64
2021/06/19 08:13:33;;;;;;;0.25;0.25;;;;;;;21.55;39.34;98190.53;5031452;28;20038;-61
2021/06/19 08:16:00;;;;;;;0.28;0.28;;;;;;;21.66;38.97;98169.53;5030585;28;20546;-61
2021/06/19 08:18:26;;;;;;;0.63;0.63;;;;;;;21.72;39.13;98177.78;5030211;28;20049;-61
2021/06/19 08:20:52;;;;;;;0.10;0.10;;;;;;;21.71;39.19;98176.94;5029705;28;20541;-63
2021/06/19 08:23:18;;;;;;;0.10;0.10;;;;;;;21.67;39.46;98179.59;5031089;28;20124;-64
2021/06/19 08:25:44;;;;;;;0.40;0.40;;;;;;;21.65;39.42;98178.25;5030194;28;20128;-61
2021/06/19 08:28:10;;;;;;;0.10;0.10;;;;;;;21.51;39.86;98192.34;5029938;28;20040;-62
2021/06/19 08:30:36;;;;;;;0.38;0.38;;;;;;;21.23;40.21;98200.88;5031236;28;20025;-62
2021/06/19 08:33:02;;;;;;;1.20;1.08;;;;;;;20.96;40.83;98188.72;5030654;28;20514;-61
2021/06/19 08:35:27;;;;;;;1.83;1.73;;;;;;;20.78;41.23;98198.13;5025227;28;20068;-63
2021/06/19 08:37:53;;;;;;;0.10;0.10;;;;;;;20.63;41.37;98205.72;5021962;28;20124;-63
2021/06/19 08:40:19;;;;;;;0.57;0.57;;;;;;;20.63;41.36;98196.53;5024094;28;20028;-62
2021/06/19 08:42:45;;;;;;;0.30;0.30;;;;;;;20.71;41.19;98197.75;5026103;28;20033;-64
2021/06/19 08:45:11;;;;;;;0.43;0.43;;;;;;;20.86;40.92;98202.13;5030159;28;20040;-63
2021/06/19 08:47:37;;;;;;;0.20;0.20;;;;;;;20.83;41.22;98203.56;5030713;28;20470;-61
2021/06/19 08:50:09;;;;;;;2.53;0.35;;;;;;;20.76;41.31;98194.81;5029898;28;20069;-62
2021/06/19 08:52:36;;;;;;;0.10;0.10;;;;;;;20.71;41.30;98186.59;5030269;28;20033;-62
2021/06/19 08:55:11;;;;;;;0.10;0.10;;;;;;;20.65;41.64;98180.28;5030778;28;20045;-61
2021/06/19 08:57:37;;;;;;;0.10;0.10;;;;;;;20.47;41.97;98182.13;5029689;28;20445;-62
2021/06/19 09:00:05;;;;;;;0.10;0.10;;;;;;;20.30;42.54;98178.06;5012426;28;20049;-63
2021/06/19 09:02:31;;;;;;;0.13;0.13;;;;;;;20.32;42.38;98177.75;5029265;28;20037;-62
2021/06/19 09:05:12;;;;;;;0.20;0.20;;;;;;;20.30;42.43;98161.34;5029726;28;20029;-62
2021/06/19 09:07:43;;;;;;;0.17;0.17;;;;;;;20.29;42.46;98167.22;5029868;28;20060;-62
2021/06/19 09:10:36;;;;;;;0.30;0.30;;;;;;;20.20;42.67;98160.72;5029830;28;20403;-63
2021/06/19 09:13:06;;;;;;;0.10;0.10;;;;;;;20.17;42.55;98150.22;4988736;28;20504;-63
2021/06/19 09:15:35;;;;;;;0.10;0.10;;;;;;;20.29;42.59;98147.72;4988692;28;20169;-62
2021/06/19 09:18:23;;;;;;;0.10;0.10;;;;;;;20.52;42.13;98134.56;4972651;28;20043;-62
2021/06/19 09:20:53;;;;;;;0.20;0.20;;;;;;;20.64;41.97;98137.63;4989013;28;20104;-63
2021/06/19 09:23:43;;;;;;;0.10;0.10;;;;;;;20.71;41.94;98139.19;4971979;28;20149;-61
2021/06/19 09:26:08;;;;;;;0.20;0.20;;;;;;;20.75;41.83;98131.81;4986304;28;20144;-63
2021/06/19 09:29:16;;;;;;;0.10;0.10;;;;;;;20.93;41.90;98125.19;4987641;28;20492;-61
2021/06/19 09:31:53;;;;;;;0.10;0.10;;;;;;;21.03;41.81;98121.31;4988832;28;20046;-61
2021/06/19 09:34:24;;;;;;;0.10;0.10;;;;;;;21.26;41.32;98115.66;4972530;28;20030;-61
2021/06/19 09:37:07;;;;;;;0.20;0.20;;;;;;;21.50;41.14;98102.13;4970075;28;20427;-60
2021/06/19 09:39:35;;;;;;;0.20;0.20;;;;;;;21.70;40.62;98095.13;4973819;28;20048;-62
2021/06/19 09:42:03;;;;;;;0.75;0.25;;;;;;;21.95;40.40;98084.31;4987968;28;20092;-62
2021/06/19 09:44:37;;;;;;;0.35;0.35;;;;;;;22.13;40.16;98078.69;4988398;28;20081;-60
2021/06/19 09:47:03;;;;;;;0.20;0.20;;;;;;;22.22;40.31;98082.31;4988461;28;20042;-61
2021/06/19 09:49:33;;;;;;;0.10;0.10;;;;;;;22.29;40.16;98079.00;5000375;28;20037;-61
2021/06/19 09:51:59;;;;;;;0.10;0.10;;;;;;;22.32;40.44;98078.38;5028264;28;20060;-62
2021/06/19 09:54:25;;;;;;;0.10;0.10;;;;;;;22.35;40.30;98081.34;5029099;28;20061;-62
2021/06/19 09:56:52;;;;;;;0.10;0.10;;;;;;;22.28;40.57;98069.81;5029466;28;20048;-60
2021/06/19 09:59:23;;;;;;;0.52;0.52;;;;;;;22.31;40.77;98071.94;5029940;28;20361;-61
2021/06/19 10:01:50;;;;;;;0.10;0.10;;;;;;;22.53;40.21;98067.34;5028959;28;20045;-60
2021/06/19 10:04:19;;;;;;;0.10;0.10;;;;;;;22.78;39.91;98048.84;5026307;28;20388;-59
2021/06/19 10:06:46;;;;;;;0.32;0.32;;;;;;;22.98;39.55;98055.69;5028891;28;20517;-49
2021/06/19 10:09:14;;;;;;;0.40;0.40;;;;;;;23.05;39.62;98055.16;5028713;28;20033;-62
2021/06/19 10:11:42;;;;;;;0.10;0.10;;;;;;;23.19;39.58;98040.94;5029090;28;20037;-60
2021/06/19 10:14:17;;;;;;;0.30;0.30;;;;;;;23.39;39.44;98037.38;5027939;28;20103;-61
2021/06/19 10:16:49;;;;;;;0.10;0.10;;;;;;;23.48;39.24;98028.09;5029415;28;20033;-63
2021/06/19 10:19:22;;;;;;;0.63;0.13;;;;;;;23.37;39.38;98036.91;5028836;28;20038;-63
2021/06/19 10:21:52;;;;;;;0.10;0.10;;;;;;;23.29;39.84;98029.34;5028827;28;20030;-58
2021/06/19 10:24:20;;;;;;;0.30;0.30;;;;;;;23.07;40.27;98034.06;5028138;28;20123;-51
2021/06/19 10:26:46;;;;;;;0.10;0.10;;;;;;;22.86;40.57;98019.16;5029553;28;20388;-53
2021/06/19 10:29:13;;;;;;;0.10;0.10;;;;;;;22.63;40.83;98018.59;5028846;28;20041;-61
2021/06/19 10:31:45;;;;;;;2.45;1.65;;;;;;;22.45;41.27;98023.41;5029513;28;20095;-53
2021/06/19 10:34:19;;;;;;;2.30;0.75;;;;;;;22.30;41.52;98033.94;5029452;28;20034;-59
2021/06/19 10:36:45;;;;;;;;;;;;;;;22.28;41.57;98029.84;5029382;28;20022;-56
2021/06/19 10:39:11;;;;;;;0.52;0.30;;;;;;;22.17;41.55;98038.59;5028745;28;19916;-59
2021/06/19 10:41:48;;;;;;;0.10;0.10;;;;;;;22.00;41.86;98021.81;5032569;28;20175;-60
2021/06/19 10:44:34;;;;;;;0.10;0.10;;;;;;;21.97;41.70;98042.03;5031644;28;20040;-60
2021/06/19 10:47:03;;;;;;;0.57;0.57;;;;;;;22.12;41.44;98043.50;5030657;28;20041;-62
2021/06/19 10:49:32;;;;;;;0.50;0.50;;;;;;;22.27;41.31;98040.19;5032739;28;20045;-60
2021/06/19 10:52:24;;;;;;;0.10;0.10;;;;;;;22.26;41.36;98038.56;5032469;28;20026;-62
2021/06/19 10:55:11;;;;;;;0.10;0.10;;;;;;;22.33;40.95;98044.50;5032920;28;20041;-62
2021/06/19 10:57:45;;;;;;;0.32;0.32;;;;;;;22.28;40.93;98047.44;5031154;28;20147;-62
2021/06/19 11:00:32;;;;;;;0.10;0.10;;;;;;;21.99;41.88;98046.13;5032126;28;20132;-65
2021/06/19 11:03:01;;;;;;;0.10;0.10;;;;;;;21.67;42.25;98053.88;5030911;28;20529;-63
2021/06/19 11:05:45;;;;;;;0.10;0.10;;;;;;;21.36;43.00;98062.28;5031818;28;20041;-63
2021/06/19 11:08:18;;;;;;;0.10;0.10;;;;;;;21.09;43.42;98049.41;5029209;28;20034;-61
2021/06/19 11:10:47;;;;;;;0.10;0.10;;;;;;;20.85;43.72;98041.44;5030829;28;20522;-60
2021/06/19 11:13:28;;;;;;;0.20;0.20;;;;;;;20.60;44.28;98046.56;5031514;28;20486;-60
2021/06/19 11:16:02;;;;;;;0.10;0.10;;;;;;;20.51;44.01;98037.28;5032275;28;20115;-60
2021/06/19 11:18:50;;;;;;;0.15;0.15;;;;;;;20.39;44.34;98038.72;5032709;28;20114;-61
2021/06/19 11:21:30;;;;;;;0.45;0.45;;;;;;;20.23;44.71;98040.22;5032034;28;20120;-62
2021/06/19 11:24:02;;;;;;;0.10;0.10;;;;;;;20.08;44.84;98039.50;5031741;28;20091;-61
2021/06/19 11:26:53;;;;;;;0.57;0.57;;;;;;;19.98;45.03;98036.97;5031632;28;20095;-61
2021/06/19 11:29:35;;;;;;;0.25;0.25;;;;;;;19.83;45.27;98028.97;5032413;28;20506;-62
2021/06/19 11:32:26;;;;;;;0.43;0.30;;;;;;;19.76;45.45;98037.75;5032122;28;20386;-60
2021/06/19 11:34:59;;;;;;;0.10;0.10;;;;;;;19.72;45.51;98028.34;5031459;28;20061;-61
2021/06/19 11:38:11;;;;;;;0.10;0.10;;;;;;;19.56;45.73;98025.91;5031572;28;20041;-61
2021/06/19 11:40:38;;;;;;;0.10;0.10;;;;;;;19.28;46.13;98030.72;5023343;28;20037;-61
2021/06/19 11:43:06;;;;;;;0.10;0.10;;;;;;;19.04;46.67;98033.75;5030980;28;20037;-60